sensor_id;sensor_type;location;lat;lon;timestamp;pressure;altitude;pressure_sealevel;temperature;humidity
7906;BME280;13291;40.472;-3.878;2022-09-09T00:01:47;52973.97;;;-139.96;43.89
7906;BME280;13291;40.472;-3.878;2022-09-09T00:04:24;52951.97;;;-139.96;44.38
7906;BME280;13291;40.472;-3.878;2022-09-09T00:07:01;52983.97;;;-139.96;43.81
7906;BME280;13291;40.472;-3.878;2022-09-09T00:09:32;52985.97;;;-139.96;43.37
7906;BME280;13291;40.472;-3.878;2022-09-09T00:12:10;52975.97;;;-139.96;43.67
7906;BME280;13291;40.472;-3.878;2022-09-09T00:14:45;52989.97;;;-139.96;43.78
7906;BME280;13291;40.472;-3.878;2022-09-09T00:17:20;53003.97;;;-139.96;43.83
7906;BME280;13291;40.472;-3.878;2022-09-09T00:19:56;53003.97;;;-139.96;43.79
7906;BME280;13291;40.472;-3.878;2022-09-09T00:22:29;52989.97;;;-139.96;43.83
7906;BME280;13291;40.472;-3.878;2022-09-09T00:25:02;52989.97;;;-139.96;44.02
7906;BME280;13291;40.472;-3.878;2022-09-09T00:27:41;52963.97;;;-139.96;43.77
7906;BME280;13291;40.472;-3.878;2022-09-09T00:30:17;52979.97;;;-139.96;44.61
7906;BME280;13291;40.472;-3.878;2022-09-09T00:32:46;53005.97;;;-139.96;44.22
7906;BME280;13291;40.472;-3.878;2022-09-09T00:35:24;53018.00;;;-139.96;44.43
7906;BME280;13291;40.472;-3.878;2022-09-09T00:37:53;52967.97;;;-139.96;44.31
7906;BME280;13291;40.472;-3.878;2022-09-09T00:40:26;52985.97;;;-139.96;44.57
7906;BME280;13291;40.472;-3.878;2022-09-09T00:43:12;52973.97;;;-139.96;45.21
7906;BME280;13291;40.472;-3.878;2022-09-09T00:46:04;52977.97;;;-139.96;45.01
7906;BME280;13291;40.472;-3.878;2022-09-09T00:48:39;52953.97;;;-139.96;45.19
7906;BME280;13291;40.472;-3.878;2022-09-09T00:51:15;52959.97;;;-139.96;45.00
7906;BME280;13291;40.472;-3.878;2022-09-09T00:54:04;52981.97;;;-139.96;44.73
7906;BME280;13291;40.472;-3.878;2022-09-09T00:56:36;52985.97;;;-139.96;44.81
7906;BME280;13291;40.472;-3.878;2022-09-09T00:59:19;52989.97;;;-139.96;44.67
7906;BME280;13291;40.472;-3.878;2022-09-09T01:01:50;53005.97;;;-139.96;44.48
7906;BME280;13291;40.472;-3.878;2022-09-09T01:04:23;52995.97;;;-139.96;44.77
7906;BME280;13291;40.472;-3.878;2022-09-09T01:06:58;52979.97;;;-139.96;44.71
7906;BME280;13291;40.472;-3.878;2022-09-09T01:09:33;53012.00;;;-139.96;45.14
7906;BME280;13291;40.472;-3.878;2022-09-09T01:12:11;53003.97;;;-139.96;45.35
7906;BME280;13291;40.472;-3.878;2022-09-09T01:14:45;52967.97;;;-139.96;45.22
7906;BME280;13291;40.472;-3.878;2022-09-09T01:17:17;52997.97;;;-139.96;45.41
7906;BME280;13291;40.472;-3.878;2022-09-09T01:19:55;52981.97;;;-139.96;45.39
7906;BME280;13291;40.472;-3.878;2022-09-09T01:22:33;53009.97;;;-139.96;45.62
7906;BME280;13291;40.472;-3.878;2022-09-09T01:25:19;52997.97;;;-139.96;45.24
7906;BME280;13291;40.472;-3.878;2022-09-09T01:27:49;52981.97;;;-139.96;45.94
7906;BME280;13291;40.472;-3.878;2022-09-09T01:30:18;53012.00;;;-139.96;46.38
7906;BME280;13291;40.472;-3.878;2022-09-09T01:32:47;53005.97;;;-139.96;45.95
7906;BME280;13291;40.472;-3.878;2022-09-09T01:35:22;53003.97;;;-139.96;45.57
7906;BME280;13291;40.472;-3.878;2022-09-09T01:37:55;53030.00;;;-139.96;45.96
7906;BME280;13291;40.472;-3.878;2022-09-09T01:40:22;52991.97;;;-139.96;46.22
7906;BME280;13291;40.472;-3.878;2022-09-09T01:42:51;52973.97;;;-139.96;45.83
7906;BME280;13291;40.472;-3.878;2022-09-09T01:45:18;52983.97;;;-139.96;46.11
7906;BME280;13291;40.472;-3.878;2022-09-09T01:47:46;52977.97;;;-139.96;45.74
7906;BME280;13291;40.472;-3.878;2022-09-09T01:50:15;52995.97;;;-139.96;46.16
7906;BME280;13291;40.472;-3.878;2022-09-09T01:52:44;53005.97;;;-139.96;46.23
7906;BME280;13291;40.472;-3.878;2022-09-09T01:55:13;52953.97;;;-139.96;46.04
7906;BME280;13291;40.472;-3.878;2022-09-09T01:57:46;53005.97;;;-139.96;46.38
7906;BME280;13291;40.472;-3.878;2022-09-09T02:00:18;53032.00;;;-139.96;46.62
7906;BME280;13291;40.472;-3.878;2022-09-09T02:02:53;53032.00;;;-139.96;46.42
7906;BME280;13291;40.472;-3.878;2022-09-09T02:05:30;52989.97;;;-139.96;46.09
7906;BME280;13291;40.472;-3.878;2022-09-09T02:08:06;53018.00;;;-139.96;46.03
7906;BME280;13291;40.472;-3.878;2022-09-09T02:10:38;53012.00;;;-139.96;46.02
7906;BME280;13291;40.472;-3.878;2022-09-09T02:13:10;52995.97;;;-139.96;46.37
7906;BME280;13291;40.472;-3.878;2022-09-09T02:15:43;52991.97;;;-139.96;46.30
7906;BME280;13291;40.472;-3.878;2022-09-09T02:18:13;53018.00;;;-139.96;46.26
7906;BME280;13291;40.472;-3.878;2022-09-09T02:20:43;53024.00;;;-139.96;46.67
7906;BME280;13291;40.472;-3.878;2022-09-09T02:23:11;52983.97;;;-139.96;45.76
7906;BME280;13291;40.472;-3.878;2022-09-09T02:25:40;52993.97;;;-139.96;45.74
7906;BME280;13291;40.472;-3.878;2022-09-09T02:28:09;52981.97;;;-139.96;45.91
7906;BME280;13291;40.472;-3.878;2022-09-09T02:30:40;52981.97;;;-139.96;46.16
7906;BME280;13291;40.472;-3.878;2022-09-09T02:33:11;53018.00;;;-139.96;45.75
7906;BME280;13291;40.472;-3.878;2022-09-09T02:35:39;52989.97;;;-139.96;45.56
7906;BME280;13291;40.472;-3.878;2022-09-09T02:38:10;53014.00;;;-139.96;45.36
7906;BME280;13291;40.472;-3.878;2022-09-09T02:40:38;53007.97;;;-139.96;45.45
7906;BME280;13291;40.472;-3.878;2022-09-09T02:43:05;52979.97;;;-139.96;46.14
7906;BME280;13291;40.472;-3.878;2022-09-09T02:45:38;53026.00;;;-139.96;45.72
7906;BME280;13291;40.472;-3.878;2022-09-09T02:48:14;52989.97;;;-139.96;45.87
7906;BME280;13291;40.472;-3.878;2022-09-09T02:50:48;52979.97;;;-139.96;46.15
7906;BME280;13291;40.472;-3.878;2022-09-09T02:53:24;52987.97;;;-139.96;46.16
7906;BME280;13291;40.472;-3.878;2022-09-09T02:55:58;52995.97;;;-139.96;46.12
7906;BME280;13291;40.472;-3.878;2022-09-09T02:58:27;52965.97;;;-139.96;46.03
7906;BME280;13291;40.472;-3.878;2022-09-09T03:00:55;52977.97;;;-139.96;45.85
7906;BME280;13291;40.472;-3.878;2022-09-09T03:03:24;53005.97;;;-139.96;46.27
7906;BME280;13291;40.472;-3.878;2022-09-09T03:05:52;52979.97;;;-139.96;46.17
7906;BME280;13291;40.472;-3.878;2022-09-09T03:08:19;52987.97;;;-139.96;46.30
7906;BME280;13291;40.472;-3.878;2022-09-09T03:10:46;53024.00;;;-139.96;46.42
7906;BME280;13291;40.472;-3.878;2022-09-09T03:13:12;53026.00;;;-139.96;46.45
7906;BME280;13291;40.472;-3.878;2022-09-09T03:15:41;52989.97;;;-139.96;46.45
7906;BME280;13291;40.472;-3.878;2022-09-09T03:18:08;53005.97;;;-139.96;46.47
7906;BME280;13291;40.472;-3.878;2022-09-09T03:20:36;53016.00;;;-139.96;46.40
7906;BME280;13291;40.472;-3.878;2022-09-09T03:23:03;52991.97;;;-139.96;46.15
7906;BME280;13291;40.472;-3.878;2022-09-09T03:25:29;53012.00;;;-139.96;46.49
7906;BME280;13291;40.472;-3.878;2022-09-09T03:27:57;53009.97;;;-139.96;46.40
7906;BME280;13291;40.472;-3.878;2022-09-09T03:30:25;53003.97;;;-139.96;46.70
7906;BME280;13291;40.472;-3.878;2022-09-09T03:32:53;53005.97;;;-139.96;46.13
7906;BME280;13291;40.472;-3.878;2022-09-09T03:35:20;52985.97;;;-139.96;45.92
7906;BME280;13291;40.472;-3.878;2022-09-09T03:37:49;53003.97;;;-139.96;46.52
7906;BME280;13291;40.472;-3.878;2022-09-09T03:40:16;53003.97;;;-139.96;46.78
7906;BME280;13291;40.472;-3.878;2022-09-09T03:42:44;52979.97;;;-139.96;46.71
7906;BME280;13291;40.472;-3.878;2022-09-09T03:45:11;53020.00;;;-139.96;46.36
7906;BME280;13291;40.472;-3.878;2022-09-09T03:47:38;53003.97;;;-139.96;46.34
7906;BME280;13291;40.472;-3.878;2022-09-09T03:50:06;53007.97;;;-139.96;46.28
7906;BME280;13291;40.472;-3.878;2022-09-09T03:52:35;53016.00;;;-139.96;46.64
7906;BME280;13291;40.472;-3.878;2022-09-09T03:55:03;53003.97;;;-139.96;46.83
7906;BME280;13291;40.472;-3.878;2022-09-09T03:57:31;53038.00;;;-139.96;46.85
7906;BME280;13291;40.472;-3.878;2022-09-09T04:00:01;53020.00;;;-139.96;47.08
7906;BME280;13291;40.472;-3.878;2022-09-09T04:02:28;53020.00;;;-139.96;46.83
7906;BME280;13291;40.472;-3.878;2022-09-09T04:04:55;52985.97;;;-139.96;47.04
7906;BME280;13291;40.472;-3.878;2022-09-09T04:07:22;52997.97;;;-139.96;47.16
7906;BME280;13291;40.472;-3.878;2022-09-09T04:09:48;53005.97;;;-139.96;46.97
7906;BME280;13291;40.472;-3.878;2022-09-09T04:12:17;52989.97;;;-139.96;47.68
7906;BME280;13291;40.472;-3.878;2022-09-09T04:14:44;53009.97;;;-139.96;47.56
7906;BME280;13291;40.472;-3.878;2022-09-09T04:17:11;53032.00;;;-139.96;47.18
7906;BME280;13291;40.472;-3.878;2022-09-09T04:19:38;53026.00;;;-139.96;47.25
7906;BME280;13291;40.472;-3.878;2022-09-09T04:22:05;53026.00;;;-139.96;46.99
7906;BME280;13291;40.472;-3.878;2022-09-09T04:24:31;53036.00;;;-139.96;47.09
7906;BME280;13291;40.472;-3.878;2022-09-09T04:26:58;53050.00;;;-139.96;47.06
7906;BME280;13291;40.472;-3.878;2022-09-09T04:29:26;53040.00;;;-139.96;47.43
7906;BME280;13291;40.472;-3.878;2022-09-09T04:31:53;53001.97;;;-139.96;47.13
7906;BME280;13291;40.472;-3.878;2022-09-09T04:34:20;53026.00;;;-139.96;47.24
7906;BME280;13291;40.472;-3.878;2022-09-09T04:36:47;53038.00;;;-139.96;47.37
7906;BME280;13291;40.472;-3.878;2022-09-09T04:39:14;53014.00;;;-139.96;47.39
7906;BME280;13291;40.472;-3.878;2022-09-09T04:41:41;53070.00;;;-139.96;47.68
7906;BME280;13291;40.472;-3.878;2022-09-09T04:44:07;53022.00;;;-139.96;47.32
7906;BME280;13291;40.472;-3.878;2022-09-09T04:46:36;53034.00;;;-139.96;47.40
7906;BME280;13291;40.472;-3.878;2022-09-09T04:49:03;53036.00;;;-139.96;47.02
7906;BME280;13291;40.472;-3.878;2022-09-09T04:51:30;53034.00;;;-139.96;47.02
7906;BME280;13291;40.472;-3.878;2022-09-09T04:53:57;53038.00;;;-139.96;46.97
7906;BME280;13291;40.472;-3.878;2022-09-09T04:56:24;53028.00;;;-139.96;46.75
7906;BME280;13291;40.472;-3.878;2022-09-09T04:58:53;53018.00;;;-139.96;47.02
7906;BME280;13291;40.472;-3.878;2022-09-09T05:01:21;53007.97;;;-139.96;46.84
7906;BME280;13291;40.472;-3.878;2022-09-09T05:03:51;53076.00;;;-139.96;46.81
7906;BME280;13291;40.472;-3.878;2022-09-09T05:06:19;53026.00;;;-139.96;46.98
7906;BME280;13291;40.472;-3.878;2022-09-09T05:08:47;53040.00;;;-139.96;46.99
7906;BME280;13291;40.472;-3.878;2022-09-09T05:11:16;52993.97;;;-139.96;46.90
7906;BME280;13291;40.472;-3.878;2022-09-09T05:13:43;53030.00;;;-139.96;46.61
7906;BME280;13291;40.472;-3.878;2022-09-09T05:16:11;53042.00;;;-139.96;46.61
7906;BME280;13291;40.472;-3.878;2022-09-09T05:18:38;53034.00;;;-139.96;46.48
7906;BME280;13291;40.472;-3.878;2022-09-09T05:21:07;53058.00;;;-139.96;46.46
7906;BME280;13291;40.472;-3.878;2022-09-09T05:23:33;53026.00;;;-139.96;46.45
7906;BME280;13291;40.472;-3.878;2022-09-09T05:26:01;53056.00;;;-139.96;46.32
7906;BME280;13291;40.472;-3.878;2022-09-09T05:28:28;53018.00;;;-139.96;46.35
7906;BME280;13291;40.472;-3.878;2022-09-09T05:30:59;53048.00;;;-139.96;46.38
7906;BME280;13291;40.472;-3.878;2022-09-09T05:33:29;53046.00;;;-139.96;46.53
7906;BME280;13291;40.472;-3.878;2022-09-09T05:35:57;53030.00;;;-139.96;46.50
7906;BME280;13291;40.472;-3.878;2022-09-09T05:38:26;53030.00;;;-139.96;46.07
7906;BME280;13291;40.472;-3.878;2022-09-09T05:40:53;53034.00;;;-139.96;46.16
7906;BME280;13291;40.472;-3.878;2022-09-09T05:43:21;53056.00;;;-139.96;46.00
7906;BME280;13291;40.472;-3.878;2022-09-09T05:45:48;53052.00;;;-139.96;46.03
7906;BME280;13291;40.472;-3.878;2022-09-09T05:48:27;53038.00;;;-139.96;46.04
7906;BME280;13291;40.472;-3.878;2022-09-09T05:50:54;53028.00;;;-139.96;46.05
7906;BME280;13291;40.472;-3.878;2022-09-09T05:53:21;53026.00;;;-139.96;45.83
7906;BME280;13291;40.472;-3.878;2022-09-09T05:55:49;53050.00;;;-139.96;46.00
7906;BME280;13291;40.472;-3.878;2022-09-09T05:58:16;53030.00;;;-139.96;45.93
7906;BME280;13291;40.472;-3.878;2022-09-09T06:00:43;53020.00;;;-139.96;45.68
7906;BME280;13291;40.472;-3.878;2022-09-09T06:03:11;53026.00;;;-139.96;45.41
7906;BME280;13291;40.472;-3.878;2022-09-09T06:05:38;53007.97;;;-139.96;45.59
7906;BME280;13291;40.472;-3.878;2022-09-09T06:08:04;53050.00;;;-139.96;45.46
7906;BME280;13291;40.472;-3.878;2022-09-09T06:10:32;53038.00;;;-139.96;46.00
7906;BME280;13291;40.472;-3.878;2022-09-09T06:13:01;53022.00;;;-139.96;45.94
7906;BME280;13291;40.472;-3.878;2022-09-09T06:15:28;53038.00;;;-139.96;45.73
7906;BME280;13291;40.472;-3.878;2022-09-09T06:17:56;53018.00;;;-139.96;45.95
7906;BME280;13291;40.472;-3.878;2022-09-09T06:20:22;53016.00;;;-139.96;45.38
7906;BME280;13291;40.472;-3.878;2022-09-09T06:22:50;53028.00;;;-139.96;45.39
7906;BME280;13291;40.472;-3.878;2022-09-09T06:25:17;53060.00;;;-139.96;45.45
7906;BME280;13291;40.472;-3.878;2022-09-09T06:27:48;53044.00;;;-139.96;45.63
7906;BME280;13291;40.472;-3.878;2022-09-09T06:30:17;53042.00;;;-139.96;45.38
7906;BME280;13291;40.472;-3.878;2022-09-09T06:32:44;53100.00;;;-139.96;45.62
7906;BME280;13291;40.472;-3.878;2022-09-09T06:35:11;53044.00;;;-139.96;45.38
7906;BME280;13291;40.472;-3.878;2022-09-09T06:37:39;53046.00;;;-139.96;45.49
7906;BME280;13291;40.472;-3.878;2022-09-09T06:40:06;53026.00;;;-139.96;45.77
7906;BME280;13291;40.472;-3.878;2022-09-09T06:42:33;53032.00;;;-139.96;45.59
7906;BME280;13291;40.472;-3.878;2022-09-09T06:45:00;53054.00;;;-139.96;45.43
7906;BME280;13291;40.472;-3.878;2022-09-09T06:47:29;53070.00;;;-139.96;45.43
7906;BME280;13291;40.472;-3.878;2022-09-09T06:49:56;53048.00;;;-139.96;45.45
7906;BME280;13291;40.472;-3.878;2022-09-09T06:52:23;53030.00;;;-139.96;45.45
7906;BME280;13291;40.472;-3.878;2022-09-09T06:54:51;53048.00;;;-139.96;45.67
7906;BME280;13291;40.472;-3.878;2022-09-09T06:57:18;53066.00;;;-139.96;45.40
7906;BME280;13291;40.472;-3.878;2022-09-09T06:59:45;53014.00;;;-139.96;45.00
7906;BME280;13291;40.472;-3.878;2022-09-09T07:02:12;53046.00;;;-139.96;45.58
7906;BME280;13291;40.472;-3.878;2022-09-09T07:04:41;53030.00;;;-139.96;45.08
7906;BME280;13291;40.472;-3.878;2022-09-09T07:07:08;53028.00;;;-139.96;45.21
7906;BME280;13291;40.472;-3.878;2022-09-09T07:09:37;53014.00;;;-139.96;45.04
7906;BME280;13291;40.472;-3.878;2022-09-09T07:12:05;53076.00;;;-139.96;45.07
7906;BME280;13291;40.472;-3.878;2022-09-09T07:14:32;53050.00;;;-139.96;44.60
7906;BME280;13291;40.472;-3.878;2022-09-09T07:16:59;53066.00;;;-139.96;44.48
7906;BME280;13291;40.472;-3.878;2022-09-09T07:19:26;53068.00;;;-139.96;44.00
7906;BME280;13291;40.472;-3.878;2022-09-09T07:21:55;53040.00;;;-139.96;43.99
7906;BME280;13291;40.472;-3.878;2022-09-09T07:24:22;53003.97;;;-139.96;43.55
7906;BME280;13291;40.472;-3.878;2022-09-09T07:26:49;53016.00;;;-139.96;43.28
7906;BME280;13291;40.472;-3.878;2022-09-09T07:29:17;53030.00;;;-139.96;43.29
7906;BME280;13291;40.472;-3.878;2022-09-09T07:31:44;53026.00;;;-139.96;43.17
7906;BME280;13291;40.472;-3.878;2022-09-09T07:34:11;53005.97;;;-139.96;42.86
7906;BME280;13291;40.472;-3.878;2022-09-09T07:36:39;53014.00;;;-139.96;43.07
7906;BME280;13291;40.472;-3.878;2022-09-09T07:39:10;53026.00;;;-139.96;42.87
7906;BME280;13291;40.472;-3.878;2022-09-09T07:41:40;53038.00;;;-139.96;42.79
7906;BME280;13291;40.472;-3.878;2022-09-09T07:44:08;53009.97;;;-139.96;43.00
7906;BME280;13291;40.472;-3.878;2022-09-09T07:46:38;53001.97;;;-139.96;42.80
7906;BME280;13291;40.472;-3.878;2022-09-09T07:49:05;53022.00;;;-139.96;42.88
7906;BME280;13291;40.472;-3.878;2022-09-09T07:51:34;53026.00;;;-139.96;43.05
7906;BME280;13291;40.472;-3.878;2022-09-09T07:54:04;53032.00;;;-139.96;42.77
7906;BME280;13291;40.472;-3.878;2022-09-09T07:56:33;53024.00;;;-139.96;42.12
7906;BME280;13291;40.472;-3.878;2022-09-09T07:59:01;53005.97;;;-139.96;42.07
7906;BME280;13291;40.472;-3.878;2022-09-09T08:01:32;53044.00;;;-139.96;42.10
7906;BME280;13291;40.472;-3.878;2022-09-09T08:04:00;53022.00;;;-139.96;42.43
7906;BME280;13291;40.472;-3.878;2022-09-09T08:06:29;53022.00;;;-139.96;42.44
7906;BME280;13291;40.472;-3.878;2022-09-09T08:08:56;53068.00;;;-139.96;42.29
7906;BME280;13291;40.472;-3.878;2022-09-09T08:11:24;53005.97;;;-139.96;42.10
7906;BME280;13291;40.472;-3.878;2022-09-09T08:13:53;53001.97;;;-139.96;41.65
7906;BME280;13291;40.472;-3.878;2022-09-09T08:16:21;52997.97;;;-139.96;41.72
7906;BME280;13291;40.472;-3.878;2022-09-09T08:18:49;53014.00;;;-139.96;41.84
7906;BME280;13291;40.472;-3.878;2022-09-09T08:21:18;53014.00;;;-139.96;41.27
7906;BME280;13291;40.472;-3.878;2022-09-09T08:23:46;53016.00;;;-139.96;41.36
7906;BME280;13291;40.472;-3.878;2022-09-09T08:26:14;53022.00;;;-139.96;41.55
7906;BME280;13291;40.472;-3.878;2022-09-09T08:28:42;52977.97;;;-139.96;41.26
7906;BME280;13291;40.472;-3.878;2022-09-09T08:31:13;53014.00;;;-139.96;41.00
7906;BME280;13291;40.472;-3.878;2022-09-09T08:33:41;53026.00;;;-139.96;40.98
7906;BME280;13291;40.472;-3.878;2022-09-09T08:36:11;52967.97;;;-139.96;41.22
7906;BME280;13291;40.472;-3.878;2022-09-09T08:38:40;53028.00;;;-139.96;41.17
7906;BME280;13291;40.472;-3.878;2022-09-09T08:41:27;52999.97;;;-139.96;41.18
7906;BME280;13291;40.472;-3.878;2022-09-09T08:44:02;52999.97;;;-139.96;41.03
7906;BME280;13291;40.472;-3.878;2022-09-09T08:46:41;52987.97;;;-139.96;40.48
7906;BME280;13291;40.472;-3.878;2022-09-09T08:49:19;53026.00;;;-139.96;40.73
7906;BME280;13291;40.472;-3.878;2022-09-09T08:51:49;53007.97;;;-139.96;40.77
7906;BME280;13291;40.472;-3.878;2022-09-09T08:54:17;53026.00;;;-139.96;40.62
7906;BME280;13291;40.472;-3.878;2022-09-09T08:56:44;52983.97;;;-139.96;40.28
7906;BME280;13291;40.472;-3.878;2022-09-09T08:59:13;52981.97;;;-139.96;40.36
7906;BME280;13291;40.472;-3.878;2022-09-09T09:01:57;52979.97;;;-139.96;39.86
7906;BME280;13291;40.472;-3.878;2022-09-09T09:04:37;52977.97;;;-139.96;39.99
7906;BME280;13291;40.472;-3.878;2022-09-09T09:07:14;53005.97;;;-139.96;39.87
7906;BME280;13291;40.472;-3.878;2022-09-09T09:09:55;53014.00;;;-139.96;39.74
7906;BME280;13291;40.472;-3.878;2022-09-09T09:12:27;53034.00;;;-139.96;39.71
7906;BME280;13291;40.472;-3.878;2022-09-09T09:14:55;52989.97;;;-139.96;39.98
7906;BME280;13291;40.472;-3.878;2022-09-09T09:17:27;52981.97;;;-139.96;39.95
7906;BME280;13291;40.472;-3.878;2022-09-09T09:19:57;52989.97;;;-139.96;39.48
7906;BME280;13291;40.472;-3.878;2022-09-09T09:22:31;53007.97;;;-139.96;39.67
7906;BME280;13291;40.472;-3.878;2022-09-09T09:25:02;52985.97;;;-139.96;39.74
7906;BME280;13291;40.472;-3.878;2022-09-09T09:27:40;52989.97;;;-139.96;39.64
7906;BME280;13291;40.472;-3.878;2022-09-09T09:30:14;52973.97;;;-139.96;39.61
7906;BME280;13291;40.472;-3.878;2022-09-09T09:32:50;52963.97;;;-139.96;38.62
7906;BME280;13291;40.472;-3.878;2022-09-09T09:35:19;52987.97;;;-139.96;39.02
7906;BME280;13291;40.472;-3.878;2022-09-09T09:37:46;52953.97;;;-139.96;39.40
7906;BME280;13291;40.472;-3.878;2022-09-09T09:40:16;52949.97;;;-139.96;39.29
7906;BME280;13291;40.472;-3.878;2022-09-09T09:42:52;52967.97;;;-139.96;39.19
7906;BME280;13291;40.472;-3.878;2022-09-09T09:45:26;53009.97;;;-139.96;38.27
7906;BME280;13291;40.472;-3.878;2022-09-09T09:48:01;53007.97;;;-139.96;38.10
7906;BME280;13291;40.472;-3.878;2022-09-09T09:50:29;52975.97;;;-139.96;38.41
7906;BME280;13291;40.472;-3.878;2022-09-09T09:52:58;53005.97;;;-139.96;38.64
7906;BME280;13291;40.472;-3.878;2022-09-09T09:55:26;52973.97;;;-139.96;38.84
7906;BME280;13291;40.472;-3.878;2022-09-09T09:58:01;52981.97;;;-139.96;38.12
7906;BME280;13291;40.472;-3.878;2022-09-09T10:00:29;52993.97;;;-139.96;37.82
7906;BME280;13291;40.472;-3.878;2022-09-09T10:02:56;52977.97;;;-139.96;36.87
7906;BME280;13291;40.472;-3.878;2022-09-09T10:05:25;52961.97;;;-139.96;37.23
7906;BME280;13291;40.472;-3.878;2022-09-09T10:08:03;52977.97;;;-139.96;37.83
7906;BME280;13291;40.472;-3.878;2022-09-09T10:10:45;52965.97;;;-139.96;36.99
7906;BME280;13291;40.472;-3.878;2022-09-09T10:13:19;52971.97;;;-139.96;38.58
7906;BME280;13291;40.472;-3.878;2022-09-09T10:15:57;52967.97;;;-139.96;36.29
7906;BME280;13291;40.472;-3.878;2022-09-09T10:18:42;52961.97;;;-139.96;35.74
7906;BME280;13291;40.472;-3.878;2022-09-09T10:21:21;52949.97;;;-139.96;36.04
7906;BME280;13291;40.472;-3.878;2022-09-09T10:24:00;52971.97;;;-139.96;35.60
7906;BME280;13291;40.472;-3.878;2022-09-09T10:26:39;52959.97;;;-139.96;36.84
7906;BME280;13291;40.472;-3.878;2022-09-09T10:29:34;52969.97;;;-139.96;36.42
7906;BME280;13291;40.472;-3.878;2022-09-09T10:32:26;52981.97;;;-139.96;37.04
7906;BME280;13291;40.472;-3.878;2022-09-09T10:34:56;52945.97;;;-139.96;34.45
7906;BME280;13291;40.472;-3.878;2022-09-09T10:37:39;52961.97;;;-139.96;33.79
7906;BME280;13291;40.472;-3.878;2022-09-09T10:40:28;52979.97;;;-139.96;34.61
7906;BME280;13291;40.472;-3.878;2022-09-09T10:43:04;52963.97;;;-139.96;34.07
7906;BME280;13291;40.472;-3.878;2022-09-09T10:45:43;52951.97;;;-139.96;34.26
7906;BME280;13291;40.472;-3.878;2022-09-09T10:48:29;52981.97;;;-139.96;33.75
7906;BME280;13291;40.472;-3.878;2022-09-09T10:51:06;52971.97;;;-139.96;34.11
7906;BME280;13291;40.472;-3.878;2022-09-09T10:53:50;52937.97;;;-139.96;34.23
7906;BME280;13291;40.472;-3.878;2022-09-09T10:56:21;52961.97;;;-139.96;35.63
7906;BME280;13291;40.472;-3.878;2022-09-09T10:58:54;52979.97;;;-139.96;35.49
7906;BME280;13291;40.472;-3.878;2022-09-09T11:01:25;52959.97;;;-139.96;35.91
7906;BME280;13291;40.472;-3.878;2022-09-09T11:03:56;52927.97;;;-139.96;36.06
7906;BME280;13291;40.472;-3.878;2022-09-09T11:06:28;52971.97;;;-139.96;33.27
7906;BME280;13291;40.472;-3.878;2022-09-09T11:09:00;52913.97;;;-139.96;33.39
7906;BME280;13291;40.472;-3.878;2022-09-09T11:11:32;52917.97;;;-139.96;34.00
7906;BME280;13291;40.472;-3.878;2022-09-09T11:14:08;52941.97;;;-139.96;35.98
7906;BME280;13291;40.472;-3.878;2022-09-09T11:16:41;52935.97;;;-139.96;34.54
7906;BME280;13291;40.472;-3.878;2022-09-09T11:19:15;52929.97;;;-139.96;34.02
7906;BME280;13291;40.472;-3.878;2022-09-09T11:21:46;52949.97;;;-139.96;34.46
7906;BME280;13291;40.472;-3.878;2022-09-09T11:24:20;52917.97;;;-139.96;33.49
7906;BME280;13291;40.472;-3.878;2022-09-09T11:26:52;52933.97;;;-139.96;33.73
7906;BME280;13291;40.472;-3.878;2022-09-09T11:29:40;52917.97;;;-139.96;33.75
7906;BME280;13291;40.472;-3.878;2022-09-09T11:32:22;52927.97;;;-139.96;34.22
7906;BME280;13291;40.472;-3.878;2022-09-09T11:34:56;52929.97;;;-139.96;33.80
7906;BME280;13291;40.472;-3.878;2022-09-09T11:37:48;52955.97;;;-139.96;33.90
7906;BME280;13291;40.472;-3.878;2022-09-09T11:40:24;52919.97;;;-139.96;34.45
7906;BME280;13291;40.472;-3.878;2022-09-09T11:43:01;52937.97;;;-139.96;34.48
7906;BME280;13291;40.472;-3.878;2022-09-09T11:45:29;52933.97;;;-139.96;34.42
7906;BME280;13291;40.472;-3.878;2022-09-09T11:47:58;52903.97;;;-139.96;32.94
7906;BME280;13291;40.472;-3.878;2022-09-09T11:50:31;52937.97;;;-139.96;32.48
7906;BME280;13291;40.472;-3.878;2022-09-09T11:53:20;52893.97;;;-139.96;31.99
7906;BME280;13291;40.472;-3.878;2022-09-09T11:56:07;52913.97;;;-139.96;32.75
7906;BME280;13291;40.472;-3.878;2022-09-09T11:58:41;52921.97;;;-139.96;32.83
7906;BME280;13291;40.472;-3.878;2022-09-09T12:01:36;52927.97;;;-139.96;32.31
7906;BME280;13291;40.472;-3.878;2022-09-09T12:04:16;52925.97;;;-139.96;31.71
7906;BME280;13291;40.472;-3.878;2022-09-09T12:06:46;52887.97;;;-139.96;31.61
7906;BME280;13291;40.472;-3.878;2022-09-09T12:09:19;52929.97;;;-139.96;31.59
7906;BME280;13291;40.472;-3.878;2022-09-09T12:11:50;52929.97;;;-139.96;32.84
7906;BME280;13291;40.472;-3.878;2022-09-09T12:14:22;52903.97;;;-139.96;31.92
7906;BME280;13291;40.472;-3.878;2022-09-09T12:16:49;52931.97;;;-139.96;32.57
7906;BME280;13291;40.472;-3.878;2022-09-09T12:19:19;52917.97;;;-139.96;32.11
7906;BME280;13291;40.472;-3.878;2022-09-09T12:21:54;52897.97;;;-139.96;31.18
7906;BME280;13291;40.472;-3.878;2022-09-09T12:24:32;52885.97;;;-139.96;31.00
7906;BME280;13291;40.472;-3.878;2022-09-09T12:27:11;52905.97;;;-139.96;31.11
7906;BME280;13291;40.472;-3.878;2022-09-09T12:29:47;52893.97;;;-139.96;30.48
7906;BME280;13291;40.472;-3.878;2022-09-09T12:32:22;52893.97;;;-139.96;31.08
7906;BME280;13291;40.472;-3.878;2022-09-09T12:34:52;52909.97;;;-139.96;31.38
7906;BME280;13291;40.472;-3.878;2022-09-09T12:37:27;52883.97;;;-139.96;31.76
7906;BME280;13291;40.472;-3.878;2022-09-09T12:39:56;52927.97;;;-139.96;31.57
7906;BME280;13291;40.472;-3.878;2022-09-09T12:42:26;52895.97;;;-139.96;31.43
7906;BME280;13291;40.472;-3.878;2022-09-09T12:44:55;52885.97;;;-139.96;30.97
7906;BME280;13291;40.472;-3.878;2022-09-09T12:47:26;52903.97;;;-139.96;31.49
7906;BME280;13291;40.472;-3.878;2022-09-09T12:49:54;52879.97;;;-139.96;30.39
7906;BME280;13291;40.472;-3.878;2022-09-09T12:52:26;52887.97;;;-139.96;31.09
7906;BME280;13291;40.472;-3.878;2022-09-09T12:54:55;52889.97;;;-139.96;31.57
7906;BME280;13291;40.472;-3.878;2022-09-09T12:57:25;52865.97;;;-139.96;30.29
7906;BME280;13291;40.472;-3.878;2022-09-09T13:00:07;52907.97;;;-139.96;30.96
7906;BME280;13291;40.472;-3.878;2022-09-09T13:02:46;52871.97;;;-139.96;29.86